Time;durP1;ratioP1;P1;durP2;ratioP2;P2;SDS_P1;SDS_P2;PMS_P1;PMS_P2;Temp;Humidity;BMP_temperature;BMP_pressure;BME280_temperature;BME280_humidity;BME280_pressure;Samples;Min_cycle;Max_cycle;Signal;HPM_P1;HPM_P2
2024/02/08 00:01:51;;;;;;;7.10;2.30;;;;;;;1.75;76.31;98945.84;134276;1262;108753;-79
2024/02/08 00:04:56;;;;;;;4.50;2.00;;;;;;;1.72;76.27;98942.41;134222;1264;108427;-80
2024/02/08 00:08:02;;;;;;;2.80;1.40;;;;;;;1.71;76.07;98948.27;134255;1264;108788;-80
2024/02/08 00:11:07;;;;;;;7.20;2.00;;;;;;;1.64;76.04;98950.63;134220;1264;107432;-80
2024/02/08 00:14:13;;;;;;;7.50;2.10;;;;;;;1.62;76.33;98950.51;134229;1263;107853;-80
2024/02/08 00:17:20;;;;;;;3.40;1.80;;;;;;;1.60;75.93;98954.50;134229;1264;108262;-80
2024/02/08 00:20:25;;;;;;;3.40;1.30;;;;;;;1.53;75.70;98955.77;134244;1264;107299;-80
2024/02/08 00:23:31;;;;;;;4.70;1.50;;;;;;;1.42;75.23;98958.11;134229;1263;107749;-80
2024/02/08 00:26:36;;;;;;;8.50;2.60;;;;;;;1.32;75.65;98961.01;134235;1264;107611;-79
2024/02/08 00:29:43;;;;;;;4.90;1.60;;;;;;;1.30;75.97;98960.79;134302;1263;107652;-80
2024/02/08 00:32:49;;;;;;;8.20;2.30;;;;;;;1.32;76.27;98963.27;134291;1263;107701;-79
2024/02/08 00:35:56;;;;;;;17.90;4.70;;;;;;;1.41;76.64;98962.37;134276;1263;108616;-80
2024/02/08 00:39:06;;;;;;;16.30;4.20;;;;;;;1.52;76.42;98960.20;134272;1264;106478;-80
2024/02/08 00:42:12;;;;;;;6.60;1.90;;;;;;;1.68;76.50;98960.85;134299;1264;107016;-80
2024/02/08 00:45:21;;;;;;;5.30;1.90;;;;;;;1.85;76.68;98960.42;134297;1263;106422;-79
2024/02/08 00:48:28;;;;;;;10.20;2.90;;;;;;;2.02;76.70;98966.98;134304;1263;108892;-80
2024/02/08 00:51:34;;;;;;;14.20;4.70;;;;;;;2.14;76.33;98963.25;134313;1264;107731;-80
2024/02/08 00:54:40;;;;;;;19.20;4.30;;;;;;;2.26;76.26;98965.76;134299;1263;108417;-79
2024/02/08 00:57:46;;;;;;;22.90;5.70;;;;;;;2.33;76.34;98970.77;134287;1263;108707;-80
2024/02/08 01:00:53;;;;;;;23.10;5.70;;;;;;;2.39;76.33;98970.41;134263;1263;108695;-79
2024/02/08 01:03:58;;;;;;;12.40;3.40;;;;;;;2.44;76.27;98973.52;134283;1264;108636;-80
2024/02/08 01:07:04;;;;;;;5.30;2.30;;;;;;;2.43;76.30;98976.81;134331;1263;108417;-80
2024/02/08 01:10:10;;;;;;;4.60;2.00;;;;;;;2.39;76.20;98978.52;134296;1264;107910;-80
2024/02/08 01:13:17;;;;;;;6.40;1.80;;;;;;;2.35;76.33;98977.97;134299;1264;107693;-80
2024/02/08 01:16:23;;;;;;;7.40;2.20;;;;;;;2.29;76.12;98980.23;134288;1262;107388;-79
2024/02/08 01:19:28;;;;;;;6.10;2.00;;;;;;;2.23;76.18;98988.33;134270;1264;107667;-80
2024/02/08 01:22:34;;;;;;;4.20;1.50;;;;;;;2.15;76.24;98986.64;134310;1263;107451;-79
2024/02/08 01:25:41;;;;;;;7.40;2.70;;;;;;;2.07;76.11;98991.08;134290;1264;108318;-80
2024/02/08 01:28:46;;;;;;;7.30;2.60;;;;;;;2.02;76.13;98992.67;134290;1264;106368;-79
2024/02/08 01:31:52;;;;;;;5.50;2.20;;;;;;;1.97;76.12;98988.08;134286;1264;108143;-79
2024/02/08 01:34:59;;;;;;;6.10;2.30;;;;;;;1.90;76.22;98984.42;134259;1263;107509;-79
2024/02/08 01:38:05;;;;;;;6.00;2.50;;;;;;;1.84;76.11;98985.77;134285;1264;106516;-80
2024/02/08 01:41:11;;;;;;;7.00;2.60;;;;;;;1.79;76.30;98981.98;134310;1263;106336;-79
2024/02/08 01:44:16;;;;;;;11.00;3.40;;;;;;;1.77;76.31;98984.59;134279;1264;107211;-80
2024/02/08 01:47:22;;;;;;;8.70;3.80;;;;;;;1.74;76.20;98985.60;134291;1263;107613;-79
2024/02/08 01:50:30;;;;;;;7.40;3.00;;;;;;;1.71;76.16;98987.25;134272;1264;106500;-80
2024/02/08 01:53:35;;;;;;;9.10;2.90;;;;;;;1.67;76.13;98992.29;134297;1264;107689;-80
2024/02/08 01:56:41;;;;;;;7.10;2.80;;;;;;;1.64;76.26;98987.28;134276;1263;108698;-79
2024/02/08 01:59:52;;;;;;;14.00;4.00;;;;;;;1.61;76.11;98985.95;134295;1263;107873;-79
2024/02/08 02:03:02;;;;;;;20.40;5.00;;;;;;;1.55;76.20;98985.69;134202;1264;107797;-79
2024/02/08 02:06:08;;;;;;;19.70;5.10;;;;;;;1.52;76.23;98987.02;134261;1264;107478;-79
2024/02/08 02:09:24;;;;;;;13.50;4.20;;;;;;;1.51;76.24;98984.48;134293;1264;108641;-80
2024/02/08 02:12:30;;;;;;;16.10;4.30;;;;;;;1.55;76.32;98987.30;134299;1264;108609;-80
2024/02/08 02:15:37;;;;;;;10.90;3.60;;;;;;;1.61;76.27;98989.11;134275;1264;107412;-79
2024/02/08 02:18:43;;;;;;;8.20;3.10;;;;;;;1.65;76.12;98987.56;134277;1263;108713;-80
2024/02/08 02:21:48;;;;;;;10.00;3.40;;;;;;;1.68;76.21;98988.16;134318;1263;107368;-79
2024/02/08 02:24:57;;;;;;;11.30;3.80;;;;;;;1.70;76.02;98984.00;134271;1264;107186;-79
2024/02/08 02:28:06;;;;;;;11.10;4.00;;;;;;;1.66;76.07;98983.25;134268;1263;108780;-80
2024/02/08 02:31:13;;;;;;;15.80;5.60;;;;;;;1.66;76.09;98986.30;134314;1263;106509;-79
2024/02/08 02:34:22;;;;;;;7.40;3.60;;;;;;;1.63;75.90;98995.27;134270;1264;106630;-80
2024/02/08 02:37:27;;;;;;;10.00;3.50;;;;;;;1.59;76.13;98999.66;134300;1263;106550;-79
2024/02/08 02:40:36;;;;;;;14.80;4.60;;;;;;;1.57;76.20;99005.70;134291;1267;106481;-80
2024/02/08 02:43:44;;;;;;;12.10;4.20;;;;;;;1.55;76.07;99007.45;134282;1263;107598;-80
2024/02/08 02:46:50;;;;;;;11.80;4.10;;;;;;;1.48;76.07;98998.39;134304;1263;107630;-79
2024/02/08 02:49:56;;;;;;;11.10;4.00;;;;;;;1.45;76.28;99000.78;134269;1264;108633;-80
2024/02/08 02:53:01;;;;;;;9.80;3.70;;;;;;;1.45;76.05;99005.15;134318;1264;106714;-80
2024/02/08 02:56:08;;;;;;;13.10;4.30;;;;;;;1.43;76.16;99011.98;134314;1264;106417;-80
2024/02/08 02:59:16;;;;;;;10.50;3.50;;;;;;;1.40;76.11;99008.87;134285;1263;106697;-79
2024/02/08 03:02:28;;;;;;;8.70;3.50;;;;;;;1.40;76.28;99008.23;134288;1263;109465;-79
2024/02/08 03:05:33;;;;;;;9.50;3.70;;;;;;;1.37;76.12;99010.36;134285;1264;106672;-79
2024/02/08 03:08:41;;;;;;;11.10;3.60;;;;;;;1.36;76.17;99011.52;134299;1264;108764;-79
2024/02/08 03:11:47;;;;;;;10.60;3.50;;;;;;;1.33;76.24;99004.89;134309;1264;108815;-79
2024/02/08 03:15:01;;;;;;;9.10;3.80;;;;;;;1.29;76.19;99012.04;134295;1263;107089;-79
2024/02/08 03:18:08;;;;;;;7.90;3.50;;;;;;;1.27;76.10;99014.50;134317;1264;107986;-79
2024/02/08 03:21:17;;;;;;;11.70;3.10;;;;;;;1.23;76.30;99013.94;134256;1264;107069;-79
2024/02/08 03:24:24;;;;;;;12.90;3.90;;;;;;;1.20;76.16;99014.36;134264;1264;106372;-79
2024/02/08 03:27:32;;;;;;;9.50;3.40;;;;;;;1.21;76.22;99013.43;134317;1264;108710;-80
2024/02/08 03:30:37;;;;;;;8.50;3.10;;;;;;;1.25;76.25;99013.06;134285;1264;107308;-80
2024/02/08 03:33:43;;;;;;;9.60;3.30;;;;;;;1.29;76.04;99020.69;134282;1264;109338;-79
2024/02/08 03:36:49;;;;;;;12.90;3.60;;;;;;;1.27;75.95;99022.23;134309;1264;107093;-78
2024/02/08 03:39:55;;;;;;;8.70;3.50;;;;;;;1.22;76.09;99024.39;134254;1263;107282;-79
2024/02/08 03:43:01;;;;;;;8.80;4.20;;;;;;;1.21;76.24;99025.17;134314;1263;106627;-80
2024/02/08 03:46:07;;;;;;;7.20;3.40;;;;;;;1.24;76.10;99024.52;134256;1264;108931;-79
2024/02/08 03:49:12;;;;;;;17.10;8.10;;;;;;;1.21;76.10;99033.34;134084;1262;134825;-79
2024/02/08 03:52:19;;;;;;;20.60;9.20;;;;;;;1.13;76.03;99029.60;134225;1264;106829;-78
2024/02/08 03:55:27;;;;;;;15.00;7.40;;;;;;;1.05;76.26;99031.52;134253;1263;106388;-80
2024/02/08 03:58:32;;;;;;;17.30;8.60;;;;;;;0.94;76.21;99033.08;134192;1264;105325;-80
2024/02/08 04:01:38;;;;;;;61.60;23.90;;;;;;;0.83;76.23;99043.92;134290;1263;107601;-80
2024/02/08 04:04:50;;;;;;;147.60;55.00;;;;;;;0.74;76.49;99048.80;134236;1263;107079;-80
2024/02/08 04:07:59;;;;;;;201.20;75.70;;;;;;;0.75;76.50;99045.79;134296;1264;107472;-79
2024/02/08 04:55:10;;;;;;;407.50;136.80;;;;;;;1.07;76.58;99045.70;134263;1263;108634;-80
2024/02/08 04:58:17;;;;;;;449.70;145.40;;;;;;;1.05;76.45;99048.52;134295;1263;108633;-80
2024/02/08 05:01:25;;;;;;;425.30;129.50;;;;;;;1.03;76.63;99048.95;134287;1263;107269;-79
2024/02/08 05:04:31;;;;;;;135.20;39.10;;;;;;;1.04;76.61;99052.39;134228;1263;108745;-79
2024/02/08 05:07:37;;;;;;;91.10;31.20;;;;;;;1.04;76.56;99054.16;134238;1263;107429;-80
2024/02/08 05:10:43;;;;;;;103.70;41.90;;;;;;;1.03;76.55;99052.67;134251;1263;106341;-79
2024/02/08 05:13:50;;;;;;;85.80;36.60;;;;;;;1.04;76.66;99055.08;134237;1263;108870;-79
2024/02/08 05:16:55;;;;;;;67.70;32.20;;;;;;;1.03;76.58;99053.41;134257;1263;108518;-79
2024/02/08 05:20:04;;;;;;;38.40;17.50;;;;;;;1.02;76.66;99055.05;134289;1263;108533;-79
2024/02/08 05:23:12;;;;;;;17.10;8.30;;;;;;;1.03;76.67;99059.35;134296;1262;106352;-79
2024/02/08 05:26:19;;;;;;;21.80;13.40;;;;;;;1.04;76.65;99060.45;134302;1263;108920;-80
2024/02/08 05:29:25;;;;;;;17.40;9.20;;;;;;;1.05;76.67;99058.62;134302;1262;107049;-79
2024/02/08 05:32:35;;;;;;;12.20;6.10;;;;;;;1.05;76.75;99057.41;134239;1263;108789;-79
2024/02/08 05:35:44;;;;;;;10.50;4.80;;;;;;;1.05;76.80;99060.42;134257;1263;108698;-79
2024/02/08 05:38:52;;;;;;;9.80;5.00;;;;;;;1.06;76.83;99064.83;134244;1263;107852;-79
2024/02/08 05:41:57;;;;;;;10.30;4.50;;;;;;;1.14;76.89;99061.80;134251;1263;107073;-79
2024/02/08 05:45:18;;;;;;;11.10;6.00;;;;;;;1.22;76.82;99060.98;134253;1263;107504;-79
2024/02/08 05:48:27;;;;;;;19.90;10.00;;;;;;;1.29;76.81;99062.11;134271;1263;106621;-80
2024/02/08 05:51:33;;;;;;;11.80;5.40;;;;;;;1.34;76.73;99066.14;134231;1263;107975;-79
2024/02/08 05:54:43;;;;;;;8.90;4.00;;;;;;;1.35;76.64;99069.86;134276;1263;107870;-79
2024/02/08 05:57:50;;;;;;;9.30;4.40;;;;;;;1.36;76.48;99069.32;134287;1263;106050;-80
2024/02/08 06:01:01;;;;;;;8.90;3.50;;;;;;;1.36;76.58;99074.04;134310;1263;107225;-79
2024/02/08 06:04:07;;;;;;;9.50;3.90;;;;;;;1.33;76.50;99072.02;134291;1262;108029;-79
2024/02/08 06:07:13;;;;;;;10.10;4.80;;;;;;;1.29;76.54;99070.73;134311;1263;106539;-79
2024/02/08 06:10:22;;;;;;;13.50;5.80;;;;;;;1.26;76.60;99066.05;134297;1263;107667;-79
2024/02/08 06:13:29;;;;;;;10.60;4.80;;;;;;;1.22;76.52;99073.77;134302;1263;108653;-79
2024/02/08 06:16:45;;;;;;;9.20;4.20;;;;;;;1.18;76.48;99076.02;134296;1262;108275;-80
2024/02/08 06:19:51;;;;;;;10.60;4.40;;;;;;;1.12;76.61;99083.59;134291;1264;106937;-80
2024/02/08 06:23:01;;;;;;;10.30;5.80;;;;;;;1.10;76.48;99090.84;134294;1262;108943;-79
2024/02/08 06:26:27;;;;;;;10.70;5.50;;;;;;;1.08;76.53;99089.95;134286;1263;107341;-79
2024/02/08 06:29:42;;;;;;;8.70;5.00;;;;;;;1.05;76.54;99099.58;134321;1263;108419;-79
2024/02/08 06:32:57;;;;;;;11.00;5.30;;;;;;;1.06;76.69;99103.91;134266;1263;107627;-79
2024/02/08 06:36:07;;;;;;;14.50;5.30;;;;;;;1.07;76.77;99102.08;134302;1263;106654;-79
2024/02/08 06:39:23;;;;;;;17.30;6.60;;;;;;;1.07;76.62;99106.08;134285;1263;108714;-79
2024/02/08 06:43:15;;;;;;;159.10;62.20;;;;;;;1.09;76.69;99102.45;134308;1263;107691;-80
2024/02/08 06:46:17;;;;;;;102.60;38.20;;;;;;;1.11;76.68;99092.84;134291;1263;107549;-79
2024/02/08 07:40:25;;;;;;;25.00;10.20;;;;;;;2.29;76.55;99107.78;134255;1263;108765;-79
2024/02/08 07:43:34;;;;;;;28.30;16.10;;;;;;;2.36;76.47;99110.75;134241;1263;108424;-80
2024/02/08 07:46:47;;;;;;;23.90;11.00;;;;;;;2.44;76.35;99106.88;134274;1263;108659;-79
2024/02/08 07:49:57;;;;;;;21.60;9.70;;;;;;;2.55;76.36;99112.26;134263;1263;108537;-80
2024/02/08 07:53:08;;;;;;;22.40;11.30;;;;;;;2.65;76.30;99113.00;134263;1263;107695;-80
2024/02/08 07:59:42;;;;;;;29.80;17.10;;;;;;;2.85;76.50;99114.65;134193;1263;109020;-80
2024/02/08 08:02:48;;;;;;;14.30;7.10;;;;;;;2.95;76.44;99110.62;134245;1263;108773;-80
2024/02/08 08:05:56;;;;;;;52.80;30.50;;;;;;;3.03;76.19;99113.65;134250;1263;108241;-80
2024/02/08 08:09:18;;;;;;;61.90;32.80;;;;;;;3.12;76.01;99109.30;134243;1263;107699;-80
2024/02/08 08:12:27;;;;;;;21.30;9.10;;;;;;;3.21;76.02;99107.20;134236;1263;106718;-80
2024/02/08 08:15:49;;;;;;;43.30;20.20;;;;;;;3.30;75.87;99104.76;134220;1263;107153;-80
2024/02/08 08:18:57;;;;;;;23.50;10.30;;;;;;;3.38;75.82;99101.45;134264;1263;108628;-80
2024/02/08 08:22:18;;;;;;;80.90;35.60;;;;;;;3.44;75.73;99103.05;134267;1263;106599;-80
2024/02/08 08:25:29;;;;;;;37.60;17.90;;;;;;;3.52;75.77;99099.01;134250;1263;106806;-80
2024/02/08 08:28:51;;;;;;;23.60;11.10;;;;;;;3.58;75.66;99100.21;134242;1263;108816;-80
2024/02/08 08:32:41;;;;;;;22.80;10.70;;;;;;;3.64;75.54;99102.48;134254;1262;107914;-80
2024/02/08 08:35:45;;;;;;;19.50;9.50;;;;;;;3.65;75.29;99106.09;134294;1263;107083;-80
2024/02/08 08:38:54;;;;;;;18.10;9.90;;;;;;;3.66;75.34;99103.89;134197;1263;108613;-80
2024/02/08 08:42:05;;;;;;;20.00;10.50;;;;;;;3.68;75.28;99104.44;134307;1262;107249;-80
2024/02/08 08:45:16;;;;;;;19.40;9.30;;;;;;;3.71;75.32;99095.17;134300;1263;106271;-80
2024/02/08 08:48:29;;;;;;;20.70;11.70;;;;;;;3.71;75.12;99092.69;134247;1263;107030;-80
2024/02/08 08:51:35;;;;;;;25.90;13.20;;;;;;;3.73;74.88;99084.48;134298;1263;108773;-80
2024/02/08 08:54:56;;;;;;;17.90;9.70;;;;;;;3.76;75.13;99079.10;134279;1263;108833;-80
2024/02/08 08:58:03;;;;;;;100.70;44.80;;;;;;;3.81;74.88;99079.55;134262;1263;107818;-80
2024/02/08 09:01:15;;;;;;;195.20;86.00;;;;;;;3.79;74.88;99085.82;134296;1263;108715;-80
2024/02/08 09:04:35;;;;;;;37.90;16.40;;;;;;;3.78;74.62;99089.09;134283;1263;108678;-80
2024/02/08 09:07:45;;;;;;;23.30;10.40;;;;;;;3.74;74.66;99091.59;134265;1263;108688;-80
2024/02/08 09:10:50;;;;;;;271.90;96.50;;;;;;;3.72;74.72;99092.46;134258;1263;107657;-80
2024/02/08 09:13:58;;;;;;;83.30;28.70;;;;;;;3.71;74.65;99099.73;134304;1263;106705;-80
2024/02/08 09:17:04;;;;;;;29.40;12.10;;;;;;;3.72;74.54;99101.75;134239;1263;108351;-80
2024/02/08 09:20:19;;;;;;;22.50;9.50;;;;;;;3.78;74.53;99097.04;134254;1263;108540;-80
2024/02/08 09:23:26;;;;;;;21.00;8.70;;;;;;;3.84;74.44;99096.64;134253;1263;108865;-80
2024/02/08 09:26:48;;;;;;;18.40;8.00;;;;;;;3.92;74.39;99099.26;134263;1263;107238;-81
2024/02/08 09:29:56;;;;;;;15.50;7.70;;;;;;;4.00;74.25;99099.43;134268;1263;106762;-81
2024/02/08 09:33:03;;;;;;;84.40;36.50;;;;;;;4.09;74.23;99101.20;134261;1263;105779;-80
2024/02/08 09:36:13;;;;;;;30.20;13.80;;;;;;;4.23;74.04;99091.91;134238;1263;106314;-80
2024/02/08 09:39:19;;;;;;;64.20;29.70;;;;;;;4.29;73.93;99092.14;134231;1263;106557;-80
2024/02/08 09:42:54;;;;;;;27.40;13.50;;;;;;;4.42;73.99;99085.20;134254;1262;107882;-80
2024/02/08 09:46:10;;;;;;;18.60;8.60;;;;;;;4.61;74.02;99082.58;134318;1262;108986;-80
2024/02/08 09:49:18;;;;;;;16.10;7.30;;;;;;;4.76;73.79;99088.86;134275;1262;108680;-80
2024/02/08 09:52:30;;;;;;;16.90;7.50;;;;;;;4.94;73.51;99077.38;134329;1262;108696;-80
2024/02/08 09:55:37;;;;;;;14.70;7.40;;;;;;;5.04;73.26;99075.86;134242;1263;107353;-80
2024/02/08 09:58:55;;;;;;;12.70;7.50;;;;;;;5.12;72.91;99073.67;134319;1262;108775;-80
2024/02/08 10:02:04;;;;;;;20.10;8.00;;;;;;;5.17;72.84;99062.23;134216;1263;109534;-80
2024/02/08 10:05:48;;;;;;;22.00;11.50;;;;;;;5.22;72.68;99053.03;134313;1262;107712;-79
2024/02/08 10:08:54;;;;;;;59.60;26.30;;;;;;;5.29;72.82;99057.23;134284;1263;106574;-80
2024/02/08 10:12:06;;;;;;;48.00;22.00;;;;;;;5.34;72.47;99053.23;134205;1263;106171;-81
2024/02/08 10:15:14;;;;;;;29.30;14.50;;;;;;;5.38;72.11;99064.98;134253;1263;107720;-79
2024/02/08 10:18:33;;;;;;;24.40;11.10;;;;;;;5.41;71.54;99069.84;134228;1263;105993;-79
2024/02/08 10:21:39;;;;;;;17.90;9.60;;;;;;;5.44;71.79;99060.01;134247;1263;108814;-79
2024/02/08 10:28:10;;;;;;;19.20;8.50;;;;;;;5.54;71.75;99040.07;134266;1263;107597;-80
2024/02/08 10:31:22;;;;;;;20.50;8.80;;;;;;;5.61;71.47;99031.55;134278;1263;108120;-80
2024/02/08 10:34:35;;;;;;;17.20;8.10;;;;;;;5.66;71.37;99027.89;134284;1263;107322;-79
2024/02/08 10:37:53;;;;;;;11.90;6.50;;;;;;;5.72;70.85;99025.35;134284;1263;108812;-82
2024/02/08 10:40:59;;;;;;;18.20;9.10;;;;;;;5.81;70.84;99026.08;134309;1263;106712;-80
2024/02/08 10:44:06;;;;;;;15.00;6.60;;;;;;;5.88;70.55;99023.52;134313;1263;106545;-81
2024/02/08 10:47:11;;;;;;;10.40;5.30;;;;;;;5.94;70.58;99029.40;134249;1263;107221;-80
2024/02/08 10:50:20;;;;;;;6.90;4.00;;;;;;;6.02;70.51;99028.53;134239;1263;108438;-81
2024/02/08 10:53:43;;;;;;;7.00;4.20;;;;;;;6.10;69.86;99016.16;134249;1263;106512;-81
2024/02/08 10:57:06;;;;;;;39.70;28.90;;;;;;;6.21;69.81;99011.51;134250;1263;106191;-84
2024/02/08 11:03:34;;;;;;;17.30;9.60;;;;;;;6.29;69.69;99001.61;134240;1263;106898;-81
2024/02/08 11:06:54;;;;;;;12.90;6.70;;;;;;;6.28;68.99;98997.16;134249;1263;106907;-81
2024/02/08 11:10:00;;;;;;;14.10;7.20;;;;;;;6.24;69.72;98998.33;134256;1263;106475;-81
2024/02/08 11:13:12;;;;;;;17.50;8.70;;;;;;;6.20;68.79;98992.64;134292;1262;106878;-81
2024/02/08 11:16:21;;;;;;;12.10;7.30;;;;;;;6.11;68.40;98992.18;134300;1263;108711;-81
2024/02/08 11:19:34;;;;;;;8.70;4.60;;;;;;;6.03;68.77;98997.26;134229;1263;106942;-82
2024/02/08 11:22:42;;;;;;;9.90;5.20;;;;;;;6.00;68.72;99000.74;134283;1262;109312;-81
2024/02/08 11:25:48;;;;;;;8.10;5.10;;;;;;;5.96;68.44;99002.85;134307;1263;108620;-82
2024/02/08 11:29:02;;;;;;;10.50;5.60;;;;;;;5.91;68.60;99009.52;134293;1263;108672;-81
2024/02/08 11:32:16;;;;;;;11.70;6.00;;;;;;;5.82;67.89;99005.68;134270;1263;108512;-81
2024/02/08 11:35:23;;;;;;;12.50;7.30;;;;;;;5.72;68.40;99008.58;134261;1263;108696;-81
2024/02/08 11:38:30;;;;;;;11.90;5.90;;;;;;;5.66;68.27;99010.95;134247;1263;107170;-81
2024/02/08 11:41:42;;;;;;;14.60;8.70;;;;;;;5.61;68.44;99006.55;134307;1262;108714;-81
2024/02/08 11:45:00;;;;;;;12.00;6.30;;;;;;;5.57;68.56;99006.27;134311;1263;106503;-81
2024/02/08 11:48:08;;;;;;;29.40;15.60;;;;;;;5.49;68.34;99002.36;134288;1263;106770;-81
2024/02/08 11:51:15;;;;;;;42.10;20.70;;;;;;;5.45;68.06;99003.50;134321;1262;108452;-81
2024/02/08 11:54:28;;;;;;;60.80;28.60;;;;;;;5.38;68.04;98995.20;134334;1263;106797;-80
2024/02/08 11:57:37;;;;;;;49.40;22.00;;;;;;;5.29;68.33;98986.88;134284;1263;108534;-79
2024/02/08 12:00:48;;;;;;;18.60;8.80;;;;;;;5.26;68.17;98983.69;134302;1263;107040;-80
2024/02/08 12:03:55;;;;;;;21.80;10.50;;;;;;;5.22;68.35;98981.20;134315;1263;107559;-80
2024/02/08 12:07:07;;;;;;;14.50;7.00;;;;;;;5.24;68.31;98977.52;134338;1263;108655;-80
2024/02/08 12:10:13;;;;;;;63.80;25.20;;;;;;;5.20;68.25;98978.27;134320;1263;107482;-80
2024/02/08 12:13:25;;;;;;;30.60;12.30;;;;;;;5.15;68.23;98977.16;134317;1263;106615;-80
2024/02/08 12:16:31;;;;;;;15.40;6.20;;;;;;;5.13;68.33;98982.63;134325;1263;106499;-80
2024/02/08 12:19:37;;;;;;;21.20;9.30;;;;;;;5.11;68.12;98979.64;134316;1262;107158;-80
2024/02/08 12:22:43;;;;;;;14.10;6.00;;;;;;;5.04;67.95;98974.70;134235;1262;107247;-79
2024/02/08 12:25:54;;;;;;;12.50;5.60;;;;;;;4.97;67.82;98973.27;134258;1263;107770;-79
2024/02/08 12:29:02;;;;;;;8.70;4.40;;;;;;;4.90;67.63;98969.50;134216;1263;107555;-79
2024/02/08 12:32:16;;;;;;;9.20;4.40;;;;;;;4.89;67.85;98967.54;134222;1263;108657;-79
2024/02/08 12:35:28;;;;;;;9.80;5.00;;;;;;;4.89;67.48;98964.04;134305;1263;108680;-79
2024/02/08 12:38:33;;;;;;;14.40;6.40;;;;;;;4.83;67.15;98955.91;134285;1263;108594;-79
2024/02/08 12:41:40;;;;;;;33.40;14.20;;;;;;;4.77;67.30;98959.90;134213;1263;108452;-79
2024/02/08 12:44:48;;;;;;;20.30;9.50;;;;;;;4.73;67.13;98957.78;134245;1263;108545;-79
2024/02/08 12:47:54;;;;;;;13.70;6.90;;;;;;;4.70;67.40;98958.02;134246;1263;106588;-78
2024/02/08 12:51:03;;;;;;;16.30;7.70;;;;;;;4.69;67.54;98957.62;134238;1263;107042;-78
2024/02/08 12:54:09;;;;;;;13.80;6.70;;;;;;;4.68;67.20;98947.28;134257;1263;108612;-78
2024/02/08 12:57:16;;;;;;;15.30;7.90;;;;;;;4.62;66.99;98939.98;134236;1263;106331;-78
2024/02/08 13:00:22;;;;;;;45.50;19.90;;;;;;;4.53;67.14;98932.54;134302;1263;106526;-78
2024/02/08 13:03:27;;;;;;;17.60;8.40;;;;;;;4.47;67.00;98920.84;134302;1263;106494;-78
2024/02/08 13:06:33;;;;;;;16.70;7.80;;;;;;;4.39;67.05;98915.39;134290;1263;107894;-77
2024/02/08 13:09:39;;;;;;;20.10;10.00;;;;;;;4.32;67.17;98910.44;134294;1263;107277;-77
2024/02/08 13:12:45;;;;;;;20.30;9.50;;;;;;;4.31;67.39;98911.16;134321;1263;107067;-77
2024/02/08 13:15:58;;;;;;;17.50;8.90;;;;;;;4.31;67.37;98905.71;134299;1263;108018;-77
2024/02/08 13:19:04;;;;;;;21.80;10.70;;;;;;;4.30;67.36;98899.16;134277;1263;108712;-78
2024/02/08 13:22:11;;;;;;;20.90;11.10;;;;;;;4.32;67.41;98906.05;134310;1263;106522;-79
2024/02/08 13:25:17;;;;;;;18.00;8.90;;;;;;;4.29;67.00;98904.86;134297;1264;108751;-79
2024/02/08 13:28:24;;;;;;;18.00;8.60;;;;;;;4.24;67.34;98900.41;134309;1263;106144;-77
2024/02/08 13:31:29;;;;;;;15.90;8.40;;;;;;;4.26;67.31;98894.10;134305;1263;107062;-78
2024/02/08 13:34:40;;;;;;;27.80;15.90;;;;;;;4.27;67.28;98899.09;134337;1263;107847;-79
2024/02/08 13:37:47;;;;;;;16.10;9.30;;;;;;;4.29;67.35;98893.08;134229;1263;108608;-78
2024/02/08 13:40:58;;;;;;;18.90;9.10;;;;;;;4.30;67.33;98892.32;134247;1263;107827;-79
2024/02/08 13:44:04;;;;;;;17.20;8.60;;;;;;;4.31;67.46;98898.70;134260;1263;107605;-80
2024/02/08 13:47:10;;;;;;;17.70;7.90;;;;;;;4.34;67.31;98891.21;134259;1263;106753;-79
2024/02/08 13:50:15;;;;;;;15.30;7.40;;;;;;;4.35;67.23;98899.08;134238;1263;107724;-78
2024/02/08 13:53:21;;;;;;;10.70;6.10;;;;;;;4.34;67.13;98897.23;134262;1263;107708;-79
2024/02/08 13:56:27;;;;;;;18.30;8.90;;;;;;;4.33;67.09;98891.50;134209;1263;108762;-79
2024/02/08 13:59:33;;;;;;;15.30;7.60;;;;;;;4.31;67.19;98892.77;134259;1263;108477;-78
2024/02/08 14:02:39;;;;;;;14.20;8.00;;;;;;;4.31;67.20;98888.15;134256;1263;107764;-78
2024/02/08 14:05:50;;;;;;;11.20;5.90;;;;;;;4.31;67.00;98879.89;134259;1263;106195;-77
2024/02/08 14:09:18;;;;;;;24.10;10.10;;;;;;;4.31;67.25;98878.34;134267;1264;108670;-78
2024/02/08 14:12:24;;;;;;;17.30;8.70;;;;;;;4.32;67.29;98881.40;134239;1263;108317;-78
2024/02/08 14:15:37;;;;;;;12.40;6.50;;;;;;;4.29;67.07;98879.17;134228;1264;109258;-77
2024/02/08 14:18:48;;;;;;;11.70;5.10;;;;;;;4.24;67.09;98874.36;134300;1263;107115;-77
2024/02/08 14:21:55;;;;;;;12.10;5.20;;;;;;;4.19;67.21;98879.08;134217;1263;106987;-77
2024/02/08 14:25:06;;;;;;;10.40;4.90;;;;;;;4.19;67.33;98880.70;134279;1263;106987;-78
2024/02/08 14:28:12;;;;;;;9.50;4.70;;;;;;;4.20;67.28;98887.48;134278;1263;108593;-78
2024/02/08 14:31:18;;;;;;;7.30;4.10;;;;;;;4.18;67.25;98883.60;134281;1263;108681;-77
2024/02/08 14:34:26;;;;;;;8.50;4.40;;;;;;;4.15;67.20;98880.71;134261;1263;106869;-77
2024/02/08 14:37:32;;;;;;;12.10;5.30;;;;;;;4.11;67.28;98878.27;134227;1263;107481;-78
2024/02/08 14:40:37;;;;;;;10.30;5.50;;;;;;;4.10;67.16;98871.86;134234;1263;106574;-77
2024/02/08 14:43:46;;;;;;;12.60;5.20;;;;;;;4.08;67.27;98865.14;134261;1263;107625;-77
2024/02/08 14:46:52;;;;;;;9.10;4.40;;;;;;;4.04;67.17;98863.23;134230;1263;106908;-77
2024/02/08 14:49:59;;;;;;;9.60;4.50;;;;;;;4.04;67.28;98863.51;134221;1263;107757;-78
2024/02/08 14:53:05;;;;;;;10.00;4.80;;;;;;;4.01;67.25;98865.86;134241;1263;108651;-80
2024/02/08 14:56:18;;;;;;;11.90;4.70;;;;;;;3.96;67.28;98867.71;134207;1264;107574;-79
2024/02/08 14:59:25;;;;;;;10.30;5.00;;;;;;;3.94;67.21;98861.45;134197;1265;106451;-79
2024/02/08 15:02:30;;;;;;;11.60;5.20;;;;;;;3.89;67.15;98854.06;134224;1264;107990;-79
2024/02/08 15:05:47;;;;;;;12.60;6.00;;;;;;;3.86;67.20;98848.63;134219;1264;108271;-79
2024/02/08 15:09:06;;;;;;;10.80;5.30;;;;;;;3.80;67.17;98849.14;134222;1264;106824;-79
2024/02/08 15:12:27;;;;;;;10.70;5.10;;;;;;;3.78;67.22;98846.42;134223;1263;108502;-78
2024/02/08 15:15:33;;;;;;;16.10;7.40;;;;;;;3.74;67.05;98848.48;134254;1263;108440;-78
2024/02/08 15:18:47;;;;;;;17.50;8.10;;;;;;;3.72;67.15;98846.95;134234;1263;108651;-78
2024/02/08 15:21:53;;;;;;;16.50;9.30;;;;;;;3.69;67.27;98849.30;134260;1263;108674;-78
2024/02/08 15:25:04;;;;;;;19.40;10.40;;;;;;;3.67;67.27;98850.27;134223;1263;108773;-78
2024/02/08 15:28:25;;;;;;;18.00;8.60;;;;;;;3.63;67.25;98847.22;134250;1264;107096;-78
2024/02/08 15:31:46;;;;;;;19.10;10.00;;;;;;;3.58;67.26;98845.79;134239;1263;107819;-78
2024/02/08 15:35:04;;;;;;;15.80;8.80;;;;;;;3.56;67.41;98841.27;134231;1263;106097;-77
2024/02/08 15:38:35;;;;;;;18.80;9.70;;;;;;;3.51;67.41;98832.29;134231;1263;106089;-78
2024/02/08 15:41:51;;;;;;;15.90;8.30;;;;;;;3.48;67.50;98828.27;134217;1264;108807;-78
2024/02/08 15:44:58;;;;;;;14.70;7.70;;;;;;;3.46;67.60;98830.19;134244;1263;108714;-78
2024/02/08 15:48:10;;;;;;;17.00;7.50;;;;;;;3.44;67.65;98830.69;133959;1264;299391;-78
2024/02/08 15:51:24;;;;;;;17.00;8.50;;;;;;;3.40;67.37;98824.91;134263;1264;107301;-78
2024/02/08 15:54:38;;;;;;;13.40;6.60;;;;;;;3.37;67.56;98829.30;134293;1263;107559;-77
2024/02/08 15:57:45;;;;;;;14.20;7.10;;;;;;;3.34;67.58;98833.23;134242;1264;106636;-78
2024/02/08 16:01:10;;;;;;;15.60;8.60;;;;;;;3.32;67.45;98824.61;134259;1264;107645;-78
2024/02/08 16:04:44;;;;;;;15.00;7.80;;;;;;;3.30;67.64;98832.72;134249;1264;108688;-77
2024/02/08 16:07:57;;;;;;;14.80;8.00;;;;;;;3.28;67.61;98822.51;134239;1263;108738;-77
2024/02/08 16:11:18;;;;;;;;;;;;;;;3.27;67.74;98816.49;134293;1263;108516;-78
2024/02/08 16:14:26;;;;;;;13.00;6.70;;;;;;;3.26;67.91;98821.65;134226;1263;108383;-77
2024/02/08 16:17:39;;;;;;;14.00;6.90;;;;;;;3.23;67.89;98822.30;134158;1263;108067;-77